Time,TemperatureF,DewpointF,PressureIn,WindDirection,WindDirectionDegrees,WindSpeedMPH,WindSpeedGustMPH,Humidity,HourlyPrecipIn,Conditions,Clouds,dailyrainin,SolarRadiationWatts/m^2,SoftwareType,DateUTC
2013-04-30 00:13:00,57.9,52.0,29.78,West,279,3.0,10.0,80,0.00,,,0.00,0,weatherlink.com 1.10,2013-04-30 07:13:00,
2013-04-30 00:28:00,57.7,52.0,29.78,West,262,7.0,9.0,81,0.00,,,0.00,0,weatherlink.com 1.10,2013-04-30 07:28:00,
2013-04-30 00:43:00,57.4,52.0,29.78,WNW,288,8.0,9.0,82,0.00,,,0.00,0,weatherlink.com 1.10,2013-04-30 07:43:00,
2013-04-30 00:59:00,57.1,52.0,29.78,WNW,290,3.0,11.0,82,0.00,,,0.00,0,weatherlink.com 1.10,2013-04-30 07:59:00,
2013-04-30 01:14:00,56.9,52.0,29.78,West,278,4.0,10.0,82,0.00,,,0.00,0,weatherlink.com 1.10,2013-04-30 08:14:00,
2013-04-30 01:29:00,57.0,51.0,29.78,WSW,246,4.0,6.0,81,0.00,,,0.00,0,weatherlink.com 1.10,2013-04-30 08:29:00,
2013-04-30 01:44:00,56.4,51.0,29.78,SW,224,1.0,5.0,82,0.00,,,0.00,0,weatherlink.com 1.10,2013-04-30 08:44:00,
2013-04-30 01:59:00,56.6,51.0,29.78,WSW,242,0.0,5.0,81,0.00,,,0.00,0,weatherlink.com 1.10,2013-04-30 08:59:00,
2013-04-30 02:14:00,56.7,51.0,29.78,WSW,248,2.0,5.0,81,0.00,,,0.00,0,weatherlink.com 1.10,2013-04-30 09:14:00,
2013-04-30 02:29:00,56.8,51.0,29.78,WSW,242,2.0,6.0,81,0.00,,,0.00,0,weatherlink.com 1.10,2013-04-30 09:29:00,
2013-04-30 02:44:00,56.5,51.0,29.78,WSW,238,3.0,6.0,82,0.00,,,0.00,0,weatherlink.com 1.10,2013-04-30 09:44:00,
2013-04-30 02:59:00,56.0,51.0,29.78,WSW,244,0.0,4.0,83,0.00,,,0.00,0,weatherlink.com 1.10,2013-04-30 09:59:00,
2013-04-30 03:14:00,55.8,51.0,29.78,WSW,244,0.0,3.0,83,0.00,,,0.00,0,weatherlink.com 1.10,2013-04-30 10:14:00,
2013-04-30 03:29:00,55.0,50.0,29.78,WSW,244,0.0,3.0,84,0.00,,,0.00,0,weatherlink.com 1.10,2013-04-30 10:29:00,
2013-04-30 03:44:00,55.4,50.0,29.78,WSW,244,0.0,3.0,83,0.00,,,0.00,0,weatherlink.com 1.10,2013-04-30 10:44:00,
2013-04-30 03:59:00,54.6,50.0,29.79,WSW,244,2.0,3.0,84,0.00,,,0.00,0,weatherlink.com 1.10,2013-04-30 10:59:00,
2013-04-30 04:14:00,54.5,50.0,29.79,WSW,244,0.0,3.0,85,0.00,,,0.00,0,weatherlink.com 1.10,2013-04-30 11:14:00,
2013-04-30 04:29:00,55.1,50.0,29.79,WSW,244,0.0,3.0,83,0.00,,,0.00,0,weatherlink.com 1.10,2013-04-30 11:29:00,
2013-04-30 04:44:00,55.0,50.0,29.79,WSW,244,1.0,3.0,83,0.00,,,0.00,0,weatherlink.com 1.10,2013-04-30 11:44:00,
2013-04-30 04:59:00,54.4,49.0,29.78,WSW,244,1.0,3.0,83,0.00,,,0.00,0,weatherlink.com 1.10,2013-04-30 11:59:00,
2013-04-30 05:14:00,55.0,50.0,29.79,WSW,243,0.0,3.0,83,0.00,,,0.00,0,weatherlink.com 1.10,2013-04-30 12:14:00,
2013-04-30 05:29:00,54.3,50.0,29.79,WSW,244,3.0,4.0,84,0.00,,,0.00,0,weatherlink.com 1.10,2013-04-30 12:29:00,
2013-04-30 05:44:00,53.7,49.0,29.79,WSW,244,1.0,3.0,85,0.00,,,0.00,0,weatherlink.com 1.10,2013-04-30 12:44:00,
2013-04-30 05:59:00,53.3,50.0,29.79,WSW,244,1.0,3.0,87,0.00,,,0.00,0,weatherlink.com 1.10,2013-04-30 12:59:00,
2013-04-30 06:14:00,53.5,50.0,29.79,WSW,244,2.0,3.0,86,0.00,,,0.00,5,weatherlink.com 1.10,2013-04-30 13:14:00,
2013-04-30 06:29:00,53.4,49.0,29.81,WSW,244,0.0,1.0,86,0.00,,,0.00,14,weatherlink.com 1.10,2013-04-30 13:29:00,
2013-04-30 06:44:00,53.5,50.0,29.81,WSW,244,0.0,2.0,87,0.00,,,0.00,28,weatherlink.com 1.10,2013-04-30 13:44:00,
2013-04-30 06:59:00,54.2,50.0,29.82,WSW,243,0.0,2.0,86,0.00,,,0.00,100,weatherlink.com 1.10,2013-04-30 13:59:00,
2013-04-30 07:14:00,55.6,51.0,29.82,WSW,244,1.0,1.0,84,0.00,,,0.00,97,weatherlink.com 1.10,2013-04-30 14:14:00,
2013-04-30 07:29:00,56.3,51.0,29.82,WSW,244,0.0,2.0,82,0.00,,,0.00,128,weatherlink.com 1.10,2013-04-30 14:29:00,
2013-04-30 07:44:00,57.1,51.0,29.82,WSW,244,1.0,3.0,80,0.00,,,0.00,107,weatherlink.com 1.10,2013-04-30 14:44:00,
2013-04-30 07:59:00,57.8,51.0,29.83,WSW,243,2.0,4.0,79,0.00,,,0.00,134,weatherlink.com 1.10,2013-04-30 14:59:00,
2013-04-30 08:14:00,58.4,52.0,29.83,South,173,3.0,4.0,80,0.00,,,0.00,415,weatherlink.com 1.10,2013-04-30 15:14:00,
2013-04-30 08:29:00,60.0,52.0,29.82,South,186,2.0,5.0,76,0.00,,,0.00,450,weatherlink.com 1.10,2013-04-30 15:29:00,
2013-04-30 08:44:00,62.2,51.0,29.82,SSW,200,0.0,5.0,68,0.00,,,0.00,494,weatherlink.com 1.10,2013-04-30 15:44:00,
2013-04-30 09:00:00,63.2,51.0,29.82,South,190,5.0,6.0,64,0.00,,,0.00,548,weatherlink.com 1.10,2013-04-30 16:00:00,
2013-04-30 09:15:00,64.8,51.0,29.83,South,175,3.0,5.0,62,0.00,,,0.00,601,weatherlink.com 1.10,2013-04-30 16:15:00,
2013-04-30 09:30:00,66.6,51.0,29.83,West,279,3.0,3.0,58,0.00,,,0.00,647,weatherlink.com 1.10,2013-04-30 16:30:00,
2013-04-30 09:45:00,68.6,52.0,29.84,NNE,16,2.0,5.0,55,0.00,,,0.00,686,weatherlink.com 1.10,2013-04-30 16:45:00,
2013-04-30 10:00:00,68.5,51.0,29.84,NNW,340,1.0,6.0,54,0.00,,,0.00,731,weatherlink.com 1.10,2013-04-30 17:00:00,
2013-04-30 10:15:00,70.2,49.0,29.84,North,5,2.0,6.0,48,0.00,,,0.00,744,weatherlink.com 1.10,2013-04-30 17:15:00,
2013-04-30 10:30:00,71.2,49.0,29.83,NW,324,5.0,8.0,45,0.00,,,0.00,768,weatherlink.com 1.10,2013-04-30 17:30:00,
2013-04-30 10:45:00,72.7,46.0,29.84,NNW,342,7.0,9.0,38,0.00,,,0.00,828,weatherlink.com 1.10,2013-04-30 17:45:00,
2013-04-30 11:00:00,73.6,46.0,29.84,NNW,340,3.0,8.0,37,0.00,,,0.00,847,weatherlink.com 1.10,2013-04-30 18:00:00,
2013-04-30 11:15:00,73.8,44.0,29.84,North,355,3.0,11.0,34,0.00,,,0.00,874,weatherlink.com 1.10,2013-04-30 18:15:00,
2013-04-30 11:30:00,75.3,39.0,29.83,NNW,327,4.0,12.0,27,0.00,,,0.00,909,weatherlink.com 1.10,2013-04-30 18:30:00,
2013-04-30 11:45:00,75.6,38.0,29.83,NNW,336,7.0,14.0,26,0.00,,,0.00,919,weatherlink.com 1.10,2013-04-30 18:45:00,
2013-04-30 12:00:00,76.6,38.0,29.83,NNE,15,7.0,14.0,25,0.00,,,0.00,932,weatherlink.com 1.10,2013-04-30 19:00:00,
2013-04-30 12:15:00,77.2,37.0,29.83,North,5,8.0,12.0,23,0.00,,,0.00,939,weatherlink.com 1.10,2013-04-30 19:15:00,
2013-04-30 12:30:00,78.4,36.0,29.82,NNW,327,3.0,11.0,22,0.00,,,0.00,939,weatherlink.com 1.10,2013-04-30 19:30:00,
2013-04-30 12:45:00,78.1,35.0,29.82,North,360,5.0,12.0,21,0.00,,,0.00,942,weatherlink.com 1.10,2013-04-30 19:45:00,
2013-04-30 13:00:00,79.3,37.0,29.81,NW,306,5.0,12.0,22,0.00,,,0.00,932,weatherlink.com 1.10,2013-04-30 20:00:00,
2013-04-30 13:15:00,79.8,35.0,29.81,North,355,8.0,11.0,20,0.00,,,0.00,932,weatherlink.com 1.10,2013-04-30 20:15:00,
2013-04-30 13:30:00,80.5,36.0,29.81,North,355,8.0,10.0,20,0.00,,,0.00,926,weatherlink.com 1.10,2013-04-30 20:30:00,
2013-04-30 13:45:00,80.2,34.0,29.81,North,355,4.0,14.0,19,0.00,,,0.00,912,weatherlink.com 1.10,2013-04-30 20:45:00,
2013-04-30 14:00:00,81.6,35.0,29.80,NNW,342,6.0,10.0,19,0.00,,,0.00,889,weatherlink.com 1.10,2013-04-30 21:00:00,
2013-04-30 14:16:00,82.5,35.0,29.80,NNE,26,6.0,9.0,18,0.00,,,0.00,870,weatherlink.com 1.10,2013-04-30 21:16:00,
2013-04-30 14:31:00,82.5,33.0,29.79,NW,320,6.0,10.0,17,0.00,,,0.00,847,weatherlink.com 1.10,2013-04-30 21:31:00,
2013-04-30 14:46:00,82.9,35.0,29.79,North,349,8.0,13.0,18,0.00,,,0.00,814,weatherlink.com 1.10,2013-04-30 21:46:00,
2013-04-30 15:01:00,83.5,33.0,29.79,NNE,26,4.0,12.0,16,0.00,,,0.00,784,weatherlink.com 1.10,2013-04-30 22:01:00,
2013-04-30 15:16:00,83.6,31.0,29.79,North,355,7.0,15.0,15,0.00,,,0.00,751,weatherlink.com 1.10,2013-04-30 22:16:00,
2013-04-30 15:31:00,83.9,30.0,29.78,NNE,18,2.0,10.0,14,0.00,,,0.00,714,weatherlink.com 1.10,2013-04-30 22:31:00,
2013-04-30 15:46:00,84.9,29.0,29.78,NNE,24,2.0,10.0,13,0.00,,,0.00,675,weatherlink.com 1.10,2013-04-30 22:46:00,
2013-04-30 16:01:00,84.9,27.0,29.77,NW,317,8.0,12.0,12,0.00,,,0.00,638,weatherlink.com 1.10,2013-04-30 23:01:00,
2013-04-30 16:16:00,84.7,29.0,29.77,NNW,342,4.0,12.0,13,0.00,,,0.00,596,weatherlink.com 1.10,2013-04-30 23:16:00,
2013-04-30 16:31:00,84.8,29.0,29.77,NNW,331,4.0,11.0,13,0.00,,,0.00,561,weatherlink.com 1.10,2013-04-30 23:31:00,
2013-04-30 16:46:00,84.3,30.0,29.78,NNW,347,6.0,12.0,14,0.00,,,0.00,487,weatherlink.com 1.10,2013-04-30 23:46:00,
2013-04-30 17:01:00,81.5,45.0,29.77,WNW,286,9.0,14.0,28,0.00,,,0.00,480,weatherlink.com 1.10,2013-05-01 00:01:00,
2013-04-30 17:16:00,81.2,45.0,29.78,WSW,249,5.0,10.0,28,0.00,,,0.00,417,weatherlink.com 1.10,2013-05-01 00:16:00,
2013-04-30 17:31:00,81.6,41.0,29.77,WNW,300,3.0,10.0,24,0.00,,,0.00,359,weatherlink.com 1.10,2013-05-01 00:31:00,
2013-04-30 17:46:00,83.1,32.0,29.77,NNE,17,5.0,14.0,16,0.00,,,0.00,294,weatherlink.com 1.10,2013-05-01 00:46:00,
2013-04-30 18:01:00,82.9,35.0,29.78,East,84,2.0,11.0,18,0.00,,,0.00,221,weatherlink.com 1.10,2013-05-01 01:01:00,
2013-04-30 18:16:00,81.8,36.0,29.78,NNE,24,3.0,13.0,19,0.00,,,0.00,167,weatherlink.com 1.10,2013-05-01 01:16:00,
2013-04-30 18:31:00,81.6,33.0,29.78,ENE,61,5.0,9.0,17,0.00,,,0.00,114,weatherlink.com 1.10,2013-05-01 01:31:00,
2013-04-30 18:46:00,80.9,32.0,29.79,NNE,18,4.0,10.0,17,0.00,,,0.00,70,weatherlink.com 1.10,2013-05-01 01:46:00,
2013-04-30 19:01:00,80.1,25.0,29.79,NNE,28,2.0,9.0,13,0.00,,,0.00,39,weatherlink.com 1.10,2013-05-01 02:01:00,
2013-04-30 19:16:00,79.3,22.0,29.79,NNE,22,3.0,10.0,12,0.00,,,0.00,35,weatherlink.com 1.10,2013-05-01 02:16:00,
2013-04-30 19:31:00,78.0,19.0,29.80,NNE,30,5.0,11.0,11,0.00,,,0.00,30,weatherlink.com 1.10,2013-05-01 02:31:00,
2013-04-30 19:46:00,76.8,18.0,29.80,NE,43,1.0,8.0,11,0.00,,,0.00,14,weatherlink.com 1.10,2013-05-01 02:46:00,
2013-04-30 20:01:00,74.9,22.0,29.80,NNE,21,0.0,3.0,14,0.00,,,0.00,0,weatherlink.com 1.10,2013-05-01 03:01:00,
2013-04-30 20:16:00,73.3,23.0,29.81,NNE,27,1.0,4.0,15,0.00,,,0.00,0,weatherlink.com 1.10,2013-05-01 03:16:00,
2013-04-30 20:31:00,71.2,27.0,29.81,NNE,27,0.0,1.0,19,0.00,,,0.00,0,weatherlink.com 1.10,2013-05-01 03:31:00,
2013-04-30 20:46:00,69.3,26.0,29.81,NNE,27,0.0,2.0,20,0.00,,,0.00,0,weatherlink.com 1.10,2013-05-01 03:46:00,
2013-04-30 21:01:00,66.7,30.0,29.81,NNE,27,1.0,2.0,25,0.00,,,0.00,0,weatherlink.com 1.10,2013-05-01 04:01:00,
2013-04-30 21:16:00,65.6,33.0,29.82,NNE,27,0.0,1.0,30,0.00,,,0.00,0,weatherlink.com 1.10,2013-05-01 04:16:00,
2013-04-30 21:31:00,64.7,32.0,29.82,NNE,27,0.0,2.0,30,0.00,,,0.00,0,weatherlink.com 1.10,2013-05-01 04:31:00,
2013-04-30 21:46:00,65.2,30.0,29.82,NNE,27,0.0,0.0,27,0.00,,,0.00,0,weatherlink.com 1.10,2013-05-01 04:46:00,
2013-04-30 22:01:00,64.9,32.0,29.83,NNE,27,0.0,1.0,29,0.00,,,0.00,0,weatherlink.com 1.10,2013-05-01 05:01:00,
2013-04-30 22:16:00,64.0,33.0,29.83,North,11,0.0,3.0,31,0.00,,,0.00,0,weatherlink.com 1.10,2013-05-01 05:16:00,
2013-04-30 22:31:00,63.8,34.0,29.83,North,10,1.0,2.0,33,0.00,,,0.00,0,weatherlink.com 1.10,2013-05-01 05:31:00,
2013-04-30 22:46:00,62.1,32.0,29.83,North,11,0.0,2.0,33,0.00,,,0.00,0,weatherlink.com 1.10,2013-05-01 05:46:00,
2013-04-30 23:01:00,60.9,36.0,29.83,North,11,0.0,1.0,40,0.00,,,0.00,0,weatherlink.com 1.10,2013-05-01 06:01:00,
2013-04-30 23:16:00,60.1,36.0,29.83,NNE,13,0.0,2.0,41,0.00,,,0.00,0,weatherlink.com 1.10,2013-05-01 06:16:00,
2013-04-30 23:31:00,59.5,35.0,29.83,NNE,13,0.0,1.0,40,0.00,,,0.00,0,weatherlink.com 1.10,2013-05-01 06:31:00,
2013-04-30 23:46:00,61.3,35.0,29.83,North,5,0.0,3.0,38,0.00,,,0.00,0,weatherlink.com 1.10,2013-05-01 06:46:00,